createdAt,value
2022-10-08T13:50:07.827Z,7.45
2022-10-08T13:53:11.619Z,7.88
2022-10-08T13:56:13.570Z,7.75
2022-10-08T13:59:15.557Z,7.00
2022-10-08T14:02:17.592Z,6.65
2022-10-08T14:05:21.633Z,6.85
2022-10-08T14:08:25.502Z,6.13
2022-10-08T14:11:27.411Z,6.00
2022-10-08T14:14:29.428Z,6.57
2022-10-08T14:17:31.326Z,7.38
2022-10-08T14:20:35.609Z,6.90
2022-10-08T14:23:37.486Z,6.95
2022-10-08T14:26:39.382Z,8.95
2022-10-08T14:29:41.298Z,8.00
2022-10-08T14:32:43.545Z,7.90
2022-10-08T14:35:50.583Z,7.75
2022-10-08T14:38:52.519Z,7.85
2022-10-08T14:41:54.462Z,7.72
2022-10-08T14:44:56.604Z,8.13
2022-10-08T14:47:58.449Z,7.65
2022-10-08T14:51:01.740Z,8.25
2022-10-08T14:54:04.050Z,8.60
2022-10-08T14:57:05.968Z,7.93
2022-10-08T15:00:08.862Z,7.57
2022-10-08T15:03:10.710Z,7.80
2022-10-08T15:06:13.939Z,7.53
2022-10-08T15:09:15.901Z,10.48
2022-10-08T15:12:17.773Z,10.70
2022-10-08T15:15:19.643Z,10.88
2022-10-08T15:18:21.478Z,11.90
2022-10-08T15:21:24.730Z,10.77
2022-10-08T15:24:26.574Z,10.85
2022-10-08T15:27:28.440Z,10.82
2022-10-08T15:30:30.412Z,10.77
2022-10-08T15:33:36.993Z,11.57
2022-10-08T15:36:40.232Z,12.95
2022-10-08T15:39:42.202Z,12.93
2022-10-08T15:42:44.265Z,13.15
2022-10-08T15:45:46.297Z,13.68
2022-10-08T15:48:53.066Z,13.65
2022-10-08T15:51:56.381Z,15.68
2022-10-08T15:54:58.249Z,16.23
2022-10-08T15:58:00.113Z,18.40
2022-10-08T16:01:06.356Z,19.48
2022-10-08T16:04:12.000Z,19.88
2022-10-08T16:07:15.288Z,20.50
2022-10-08T16:10:17.303Z,21.25
2022-10-08T16:13:19.192Z,19.88
2022-10-08T16:16:22.023Z,20.95
2022-10-08T16:19:25.616Z,20.58
2022-10-08T16:22:28.883Z,19.98
2022-10-08T16:25:30.739Z,20.13
2022-10-08T16:28:34.202Z,21.73
2022-10-08T16:31:37.750Z,21.27
2022-10-08T16:34:44.097Z,22.38
2022-10-08T16:37:48.204Z,22.30
2022-10-08T16:40:50.068Z,21.33
2022-10-08T16:43:53.717Z,22.30
2022-10-08T16:46:55.519Z,23.40
2022-10-08T16:49:57.357Z,22.30
2022-10-08T16:53:00.600Z,21.83
2022-10-08T16:56:02.950Z,21.77
2022-10-08T16:59:06.683Z,20.58
2022-10-08T17:02:10.182Z,21.40
2022-10-08T17:05:12.135Z,21.08
2022-10-08T17:08:15.343Z,20.38
2022-10-08T17:11:18.137Z,21.83
2022-10-08T17:14:20.509Z,22.48
2022-10-08T17:17:22.581Z,21.23
2022-10-08T17:20:24.516Z,22.88
2022-10-08T17:23:30.904Z,21.02
2022-10-08T17:26:33.333Z,22.02
2022-10-08T17:29:35.244Z,21.50
2022-10-08T17:32:37.322Z,21.48
2022-10-08T17:35:39.212Z,22.63
2022-10-08T17:38:44.079Z,22.30
2022-10-08T17:41:46.206Z,22.33
2022-10-08T17:44:48.178Z,22.30
2022-10-08T17:47:50.185Z,20.40
2022-10-08T17:50:52.523Z,21.48
2022-10-08T17:53:58.090Z,21.77
2022-10-08T17:57:00.413Z,21.48
2022-10-08T18:00:02.401Z,22.00
2022-10-08T18:03:06.583Z,23.23
2022-10-08T18:06:10.471Z,24.63
2022-10-08T18:09:16.257Z,27.65
2022-10-08T18:12:18.950Z,20.92
2022-10-08T18:15:21.324Z,20.63
2022-10-08T18:18:23.492Z,19.65
2022-10-08T18:21:26.445Z,19.63
2022-10-08T18:24:30.545Z,18.95
2022-10-08T18:27:33.097Z,18.92
2022-10-08T18:30:36.864Z,19.83
2022-10-08T18:33:41.048Z,19.98
2022-10-08T18:36:45.398Z,19.83
2022-10-08T18:39:48.922Z,19.98
2022-10-08T18:42:51.440Z,20.30
2022-10-08T18:45:53.373Z,20.70
2022-10-08T18:48:56.422Z,20.00
2022-10-08T18:51:59.874Z,19.17
2022-10-08T18:55:04.987Z,18.08
2022-10-08T18:58:07.126Z,17.90
2022-10-08T19:01:17.856Z,15.20
2022-10-08T19:04:21.972Z,14.52
2022-10-08T19:07:24.210Z,14.63
2022-10-08T19:10:27.977Z,14.30
2022-10-08T19:13:30.120Z,13.50
2022-10-08T19:16:34.833Z,13.70
2022-10-08T19:19:36.722Z,13.20
2022-10-08T19:22:39.417Z,12.05
2022-10-08T19:25:42.878Z,11.40
2022-10-08T19:28:46.727Z,11.65
2022-10-08T19:31:49.955Z,10.45
2022-10-08T19:34:54.116Z,11.93
2022-10-08T19:37:56.700Z,12.18
2022-10-08T19:41:01.209Z,11.45
2022-10-08T19:44:05.033Z,11.68
2022-10-08T19:47:12.104Z,11.57
2022-10-08T19:50:17.762Z,11.02
2022-10-08T19:53:21.258Z,11.73
2022-10-08T19:56:24.899Z,12.57
2022-10-08T19:59:27.411Z,11.57
2022-10-08T20:02:29.554Z,12.15
2022-10-08T20:05:31.709Z,12.50
2022-10-08T20:08:34.111Z,11.52
2022-10-08T20:11:39.657Z,11.35
2022-10-08T20:14:41.669Z,11.43
2022-10-08T20:17:43.571Z,10.60
2022-10-08T20:20:45.460Z,11.80
2022-10-08T20:23:47.485Z,13.18
2022-10-08T20:26:50.758Z,12.63
2022-10-08T20:29:52.693Z,12.32
2022-10-08T20:32:54.611Z,11.48
2022-10-08T20:35:56.485Z,9.68
2022-10-08T20:38:58.539Z,10.25
2022-10-08T20:42:01.806Z,10.30
2022-10-08T20:45:04.151Z,10.35
2022-10-08T20:48:06.009Z,11.13
2022-10-08T20:51:10.764Z,11.27
2022-10-08T20:54:14.106Z,11.18
2022-10-08T20:57:17.393Z,12.27
2022-10-08T21:00:19.433Z,10.75
2022-10-08T21:03:21.303Z,9.80
2022-10-08T21:06:25.148Z,11.55
2022-10-08T21:09:26.997Z,11.00
2022-10-08T21:12:30.252Z,10.80
2022-10-08T21:15:32.231Z,11.80
2022-10-08T21:18:35.245Z,10.98
2022-10-08T21:21:37.247Z,13.95
2022-10-08T21:24:39.097Z,14.13
2022-10-08T21:27:42.351Z,13.70
2022-10-08T21:30:44.214Z,14.95
2022-10-08T21:33:47.802Z,14.98
2022-10-08T21:36:49.770Z,14.95
2022-10-08T21:39:51.715Z,15.82
2022-10-08T21:42:55.037Z,16.63
2022-10-08T21:45:57.940Z,16.27
2022-10-08T21:49:02.171Z,15.05
2022-10-08T21:52:04.076Z,15.20
2022-10-08T21:55:06.944Z,16.33
2022-10-08T21:58:10.202Z,15.05
2022-10-08T22:01:20.873Z,14.80
2022-10-08T22:04:24.470Z,13.57
2022-10-08T22:07:26.350Z,13.23
2022-10-08T22:10:28.278Z,12.32
2022-10-08T22:13:31.870Z,13.98
2022-10-08T22:16:34.074Z,12.68
2022-10-08T22:19:36.037Z,13.07
2022-10-08T22:22:37.929Z,13.68
2022-10-08T22:25:39.843Z,13.88
2022-10-08T22:28:43.927Z,13.68
2022-10-08T22:31:46.170Z,13.13
2022-10-08T22:34:48.081Z,12.88
2022-10-08T22:37:49.954Z,12.88
2022-10-08T22:40:51.816Z,13.40
2022-10-08T22:43:55.579Z,12.88
2022-10-08T22:46:57.461Z,12.63
2022-10-08T22:49:59.341Z,12.32
2022-10-08T22:53:01.423Z,12.57
2022-10-08T22:56:04.946Z,12.75
2022-10-08T22:59:08.219Z,11.07
2022-10-08T23:02:10.119Z,12.18
2022-10-08T23:05:12.040Z,11.88
2022-10-08T23:08:13.892Z,11.02
2022-10-08T23:11:16.351Z,12.02
2022-10-08T23:14:19.594Z,10.88
2022-10-08T23:17:21.465Z,11.02
2022-10-08T23:20:23.280Z,9.63
2022-10-08T23:23:25.153Z,9.52
2022-10-08T23:26:27.789Z,9.68
2022-10-08T23:29:31.046Z,9.20
2022-10-08T23:32:32.911Z,8.82
2022-10-08T23:35:34.744Z,9.48
2022-10-08T23:38:37.132Z,8.07
2022-10-08T23:41:39.187Z,8.05
2022-10-08T23:44:42.435Z,8.10
2022-10-08T23:47:44.305Z,8.13
2022-10-08T23:50:49.585Z,7.40
2022-10-08T23:53:52.464Z,7.65
2022-10-08T23:56:54.302Z,7.07
2022-10-08T23:59:57.546Z,6.97
